Airport Name : Camiri

Other Name : Camiri

ICAO : SLCA

IATA : CAM

FAA :

Latitude : -20

Longitude : -63.317

Country : Bolivia

Local Date and Time : 4/23/2018 6:53:00 PM

 

TAF (Terminal Aerodrome Forecast)

 

METAR (METeorological Aerodrome Report)

SLCA 232200Z 00000KT 9999 BKN033 27/21 Q1015

SLCA 231900Z 00000KT 9999 BKN033 30/19 Q1014